createdAt,value
2023-01-27T00:10:19.786Z,16.35
2023-01-27T00:15:35.105Z,16.40
2023-01-27T00:20:50.869Z,16.41
2023-01-27T00:26:05.809Z,16.41
2023-01-27T00:37:25.169Z,16.34
2023-01-27T00:48:42.790Z,16.36
2023-01-27T00:53:58.135Z,16.40
2023-01-27T00:59:13.835Z,16.42
2023-01-27T01:04:28.804Z,16.43
2023-01-27T01:09:44.075Z,16.39
2023-01-27T01:15:00.125Z,16.40
2023-01-27T01:20:15.849Z,16.38
2023-01-27T01:25:30.852Z,16.41
2023-01-27T01:30:45.859Z,16.40
2023-01-27T01:36:01.174Z,16.40
2023-01-27T01:41:17.861Z,16.40
2023-01-27T01:46:33.862Z,16.37
2023-01-27T01:51:51.155Z,16.34
2023-01-27T01:57:06.892Z,16.28
2023-01-27T02:02:22.701Z,16.25
2023-01-27T02:07:39.821Z,16.21
2023-01-27T02:12:55.083Z,16.22
2023-01-27T02:18:10.826Z,16.21
2023-01-27T02:23:25.830Z,16.17
2023-01-27T02:28:41.105Z,16.14
2023-01-27T02:33:56.907Z,16.10
2023-01-27T02:39:11.592Z,16.10
2023-01-27T02:44:26.834Z,16.09
2023-01-27T02:49:41.808Z,16.09
2023-01-27T02:54:56.899Z,16.14
2023-01-27T03:00:11.813Z,16.14
2023-01-27T03:05:26.813Z,16.14
2023-01-27T03:10:41.840Z,16.09
2023-01-27T03:15:56.896Z,16.10
2023-01-27T03:21:12.841Z,16.08
2023-01-27T03:26:28.078Z,16.07
2023-01-27T03:31:44.920Z,16.11
2023-01-27T03:37:02.807Z,16.12
2023-01-27T03:42:18.171Z,16.15
2023-01-27T03:47:35.801Z,16.19
2023-01-27T03:52:50.825Z,16.17
2023-01-27T03:58:05.788Z,16.15
2023-01-27T04:03:20.790Z,16.13
2023-01-27T04:08:35.867Z,16.15
2023-01-27T04:13:51.118Z,16.25
2023-01-27T04:19:06.813Z,16.26
2023-01-27T04:24:21.805Z,16.29
2023-01-27T04:29:36.568Z,16.31
2023-01-27T04:34:51.845Z,16.36
2023-01-27T04:40:07.160Z,16.37
2023-01-27T04:45:22.799Z,16.26
2023-01-27T04:50:37.907Z,16.14
2023-01-27T04:55:53.153Z,16.07
2023-01-27T05:01:08.795Z,16.01
2023-01-27T05:06:24.069Z,15.97
2023-01-27T05:11:39.865Z,15.94
2023-01-27T05:16:54.871Z,15.89
2023-01-27T05:22:09.856Z,15.85
2023-01-27T05:27:24.932Z,15.82
2023-01-27T05:32:39.827Z,15.78
2023-01-27T05:37:54.849Z,15.74
2023-01-27T05:43:10.165Z,15.71
2023-01-27T05:48:25.848Z,15.65
2023-01-27T05:53:40.865Z,15.62
2023-01-27T05:58:55.819Z,15.59
2023-01-27T06:04:10.866Z,15.57
2023-01-27T06:09:25.878Z,15.57
2023-01-27T06:14:40.805Z,15.54
2023-01-27T06:19:55.784Z,15.53
2023-01-27T06:25:10.890Z,15.52
2023-01-27T06:30:26.131Z,15.49
2023-01-27T06:35:41.804Z,15.47
2023-01-27T06:40:56.798Z,15.45
2023-01-27T06:46:12.277Z,15.45
2023-01-27T06:51:27.814Z,15.43
2023-01-27T06:56:42.841Z,15.43
2023-01-27T07:01:57.805Z,15.44
2023-01-27T07:07:13.217Z,15.43
2023-01-27T07:12:28.868Z,15.41
2023-01-27T07:17:43.940Z,15.39
2023-01-27T07:22:58.873Z,15.35
2023-01-27T07:28:13.921Z,15.37
2023-01-27T07:33:28.586Z,15.36
2023-01-27T07:38:43.867Z,15.35
2023-01-27T07:43:59.154Z,15.35
2023-01-27T07:49:15.887Z,15.34
2023-01-27T07:54:30.845Z,15.32
2023-01-27T07:59:45.907Z,15.31
2023-01-27T08:05:00.816Z,15.32
2023-01-27T08:10:16.212Z,15.32
2023-01-27T08:15:31.632Z,15.30
2023-01-27T08:20:46.864Z,15.29
2023-01-27T08:26:01.844Z,15.27
2023-01-27T08:31:16.609Z,15.27
2023-01-27T08:36:31.814Z,15.26
2023-01-27T08:41:47.186Z,15.27
2023-01-27T08:47:02.853Z,15.23
2023-01-27T08:52:17.886Z,15.17
2023-01-27T08:57:34.243Z,15.17
2023-01-27T09:02:50.962Z,15.14
2023-01-27T09:08:05.645Z,15.14
2023-01-27T09:13:20.853Z,15.12
2023-01-27T09:18:36.853Z,15.11
2023-01-27T09:23:51.851Z,15.09
2023-01-27T09:29:06.963Z,15.04
2023-01-27T09:34:21.799Z,15.00
2023-01-27T09:39:36.866Z,14.97
2023-01-27T09:44:52.139Z,14.95
2023-01-27T09:50:07.897Z,14.94
2023-01-27T09:55:22.836Z,14.92
2023-01-27T10:00:37.857Z,14.90
2023-01-27T10:05:52.887Z,14.90
2023-01-27T10:11:07.895Z,14.89
2023-01-27T10:16:22.902Z,14.92
2023-01-27T10:21:37.836Z,14.90
2023-01-27T10:26:52.821Z,14.89
2023-01-27T10:32:07.903Z,14.88
2023-01-27T10:37:23.876Z,14.91
2023-01-27T10:42:38.843Z,14.89
2023-01-27T10:47:53.820Z,14.90
2023-01-27T10:53:08.858Z,14.89
2023-01-27T10:58:23.887Z,14.89
2023-01-27T11:03:38.827Z,14.90
2023-01-27T11:08:53.915Z,14.91
2023-01-27T11:14:08.823Z,14.88
2023-01-27T11:19:24.139Z,14.86
2023-01-27T11:24:39.868Z,14.84
2023-01-27T11:29:54.890Z,14.82
2023-01-27T11:35:09.681Z,14.83
2023-01-27T11:40:25.623Z,14.82
2023-01-27T11:45:40.836Z,14.80
2023-01-27T11:50:55.934Z,14.80
2023-01-27T11:56:10.874Z,14.84
2023-01-27T12:01:26.216Z,14.98
2023-01-27T12:06:41.804Z,15.10
2023-01-27T12:11:56.857Z,15.20
2023-01-27T12:17:11.825Z,15.21
2023-01-27T12:22:26.869Z,15.26
2023-01-27T12:27:41.854Z,15.24
2023-01-27T12:32:57.179Z,15.36
2023-01-27T12:38:12.809Z,15.40
2023-01-27T12:43:27.598Z,15.40
2023-01-27T12:48:42.890Z,15.40
2023-01-27T12:53:57.859Z,15.45
2023-01-27T12:59:13.216Z,15.46
2023-01-27T13:04:28.826Z,15.45
2023-01-27T13:09:44.175Z,15.44
2023-01-27T13:14:59.899Z,15.42
2023-01-27T13:20:15.208Z,15.36
2023-01-27T13:25:30.895Z,15.37
2023-01-27T13:30:46.154Z,15.38
2023-01-27T13:36:01.839Z,15.40
2023-01-27T13:41:16.730Z,15.41
2023-01-27T13:46:31.955Z,15.44
2023-01-27T13:51:47.238Z,15.39
2023-01-27T13:57:03.174Z,15.32
2023-01-27T14:02:18.841Z,15.26
2023-01-27T14:07:33.926Z,15.18
2023-01-27T14:13:26.867Z,15.15
2023-01-27T14:18:41.880Z,15.13
2023-01-27T14:23:56.848Z,15.10
2023-01-27T14:29:11.864Z,15.05
2023-01-27T14:34:27.193Z,14.99
2023-01-27T14:39:42.850Z,14.97
2023-01-27T14:45:04.942Z,14.95
2023-01-27T14:50:19.863Z,14.95
2023-01-27T14:55:35.118Z,14.94
2023-01-27T15:00:50.887Z,14.93
2023-01-27T15:06:06.138Z,14.93
2023-01-27T15:11:21.891Z,14.93
2023-01-27T15:16:36.965Z,14.93
2023-01-27T15:21:51.875Z,14.94
2023-01-27T15:27:07.232Z,14.94
2023-01-27T15:32:23.353Z,14.97
2023-01-27T15:37:38.855Z,14.97
2023-01-27T15:42:53.910Z,14.97
2023-01-27T15:48:08.929Z,14.94
2023-01-27T15:53:23.822Z,14.90
2023-01-27T15:58:38.938Z,14.90
2023-01-27T16:03:53.895Z,14.90
2023-01-27T16:09:08.870Z,14.90
2023-01-27T16:14:23.875Z,14.91
2023-01-27T16:19:38.761Z,14.90
2023-01-27T16:24:53.907Z,14.90
2023-01-27T16:30:08.906Z,14.89
2023-01-27T16:35:24.067Z,14.88
2023-01-27T16:40:38.627Z,14.85
2023-01-27T16:45:54.224Z,14.84
2023-01-27T16:51:09.706Z,14.82
2023-01-27T16:56:24.840Z,14.84
2023-01-27T17:01:40.215Z,14.84
2023-01-27T17:06:55.982Z,14.84
2023-01-27T17:12:10.915Z,14.83
2023-01-27T17:17:25.882Z,14.82
2023-01-27T17:22:40.942Z,14.82
2023-01-27T17:27:57.229Z,14.81
2023-01-27T17:33:12.811Z,14.81
2023-01-27T17:38:27.861Z,14.81
2023-01-27T17:43:42.884Z,14.80
2023-01-27T17:48:58.163Z,14.80
2023-01-27T17:54:13.914Z,14.81
2023-01-27T17:59:29.169Z,14.81
2023-01-27T18:04:44.877Z,14.81
2023-01-27T18:09:59.841Z,14.81
2023-01-27T18:15:15.345Z,14.80
2023-01-27T18:20:30.934Z,14.83
2023-01-27T18:25:45.900Z,14.99
2023-01-27T18:31:00.668Z,15.11
2023-01-27T18:36:15.628Z,15.19
2023-01-27T18:41:30.886Z,15.27
2023-01-27T18:46:45.665Z,15.29
2023-01-27T18:52:01.355Z,15.30
2023-01-27T18:57:16.607Z,15.33
2023-01-27T19:02:32.174Z,15.40
2023-01-27T19:07:47.952Z,15.45
2023-01-27T19:13:02.781Z,15.47
2023-01-27T19:18:18.012Z,15.52
2023-01-27T19:23:32.910Z,15.55
2023-01-27T19:28:47.905Z,15.59
2023-01-27T19:34:03.248Z,15.65
2023-01-27T19:39:18.914Z,15.69
2023-01-27T19:44:33.934Z,15.72
2023-01-27T19:49:48.672Z,15.75
2023-01-27T19:55:03.878Z,15.73
2023-01-27T20:00:18.673Z,15.79
2023-01-27T20:05:35.642Z,15.81
2023-01-27T20:10:50.666Z,15.80
2023-01-27T20:16:05.968Z,15.80
2023-01-27T20:21:20.918Z,15.82
2023-01-27T20:26:35.884Z,15.81
2023-01-27T20:31:50.881Z,15.85
2023-01-27T20:37:05.935Z,15.85
2023-01-27T20:42:20.630Z,15.88
2023-01-27T20:47:36.221Z,15.88
2023-01-27T20:52:51.628Z,15.87
2023-01-27T20:58:06.915Z,15.86
2023-01-27T21:03:21.991Z,15.88
2023-01-27T21:08:36.880Z,15.89
2023-01-27T21:13:51.914Z,15.88
2023-01-27T21:19:07.186Z,15.89
2023-01-27T21:24:23.013Z,15.88
2023-01-27T21:29:37.920Z,15.91
2023-01-27T21:34:52.900Z,15.90
2023-01-27T21:40:07.931Z,15.90
2023-01-27T21:45:22.636Z,15.90
2023-01-27T21:50:38.191Z,15.92
2023-01-27T21:55:54.230Z,15.91
2023-01-27T22:01:09.977Z,15.92
2023-01-27T22:06:24.686Z,15.91
2023-01-27T22:11:39.887Z,15.89
2023-01-27T22:16:55.134Z,15.92
2023-01-27T22:22:11.181Z,15.91
2023-01-27T22:27:26.914Z,15.91
2023-01-27T22:32:41.919Z,15.90
2023-01-27T22:37:56.981Z,15.89
2023-01-27T22:43:12.278Z,15.89
2023-01-27T22:48:27.975Z,15.87
2023-01-27T22:53:42.858Z,15.88
2023-01-27T22:58:58.225Z,15.88
2023-01-27T23:04:13.847Z,15.91
2023-01-27T23:09:28.923Z,15.92
2023-01-27T23:14:43.877Z,15.93
2023-01-27T23:19:58.957Z,15.94
2023-01-27T23:25:14.192Z,15.95
2023-01-27T23:30:29.663Z,15.96
2023-01-27T23:35:44.860Z,15.97
2023-01-27T23:40:59.927Z,15.99
2023-01-27T23:46:14.979Z,15.99
2023-01-27T23:51:29.903Z,16.01
2023-01-27T23:56:44.891Z,16.02
